Time;durP1;ratioP1;P1;durP2;ratioP2;P2;SDS_P1;SDS_P2;PMS_P1;PMS_P2;Temp;Humidity;BMP_temperature;BMP_pressure;BME280_temperature;BME280_humidity;BME280_pressure;Samples;Min_cycle;Max_cycle;Signal;HPM_P1;HPM_P2
2021/11/09 00:01:57;;;;;;;33.85;11.43;;;;;;;;;;5119952;28;20055;-73
2021/11/09 00:04:29;;;;;;;29.05;11.57;;;;;;;;;;5115899;28;20044;-73
2021/11/09 00:07:03;;;;;;;33.40;12.27;;;;;;;;;;5100800;28;20044;-72
2021/11/09 00:09:34;;;;;;;35.55;11.10;;;;;;;;;;5116249;28;20044;-72
2021/11/09 00:12:00;;;;;;;31.30;11.60;;;;;;;;;;5094509;28;20064;-72
2021/11/09 00:14:26;;;;;;;28.48;10.85;;;;;;;;;;5116107;28;20040;-72
2021/11/09 00:16:52;;;;;;;26.67;10.23;;;;;;;;;;5097443;28;20056;-73
2021/11/09 00:19:18;;;;;;;27.52;10.63;;;;;;;;;;5115609;28;20210;-73
2021/11/09 00:21:44;;;;;;;27.00;10.32;;;;;;;;;;5116857;28;20168;-72
2021/11/09 00:24:10;;;;;;;26.13;10.27;;;;;;;;;;5112646;28;20480;-73
2021/11/09 00:26:37;;;;;;;25.67;11.27;;;;;;;;;;5114099;28;20127;-73
2021/11/09 00:29:03;;;;;;;32.72;10.20;;;;;;;;;;5113275;28;20044;-73
2021/11/09 00:31:29;;;;;;;23.17;10.82;;;;;;;;;;5092196;28;20071;-73
2021/11/09 00:33:55;;;;;;;25.33;10.27;;;;;;;;;;5112322;28;20097;-73
2021/11/09 00:36:23;;;;;;;26.95;10.90;;;;;;;;;;5098426;28;20104;-73
2021/11/09 00:38:49;;;;;;;30.17;10.38;;;;;;;;;;5094964;28;20053;-73
2021/11/09 00:41:15;;;;;;;26.88;9.75;;;;;;;;;;5116185;28;20047;-73
2021/11/09 00:43:42;;;;;;;31.15;10.95;;;;;;;;;;5116889;28;20460;-73
2021/11/09 00:46:09;;;;;;;31.52;10.55;;;;;;;;;;5111448;28;20048;-73
2021/11/09 00:48:35;;;;;;;27.65;10.43;;;;;;;;;;5116578;28;20064;-73
2021/11/09 00:51:01;;;;;;;26.92;10.43;;;;;;;;;;5115257;28;20036;-73
2021/11/09 00:53:27;;;;;;;28.40;10.55;;;;;;;;;;5111724;28;20050;-72
2021/11/09 00:55:54;;;;;;;29.23;11.88;;;;;;;;;;5099346;28;20040;-73
2021/11/09 00:58:20;;;;;;;31.50;11.77;;;;;;;;;;5108294;28;20059;-73
2021/11/09 01:00:46;;;;;;;34.53;11.75;;;;;;;;;;5115686;28;20036;-73
2021/11/09 01:03:13;;;;;;;28.52;11.88;;;;;;;;;;5093590;28;20130;-73
2021/11/09 01:05:39;;;;;;;29.35;11.48;;;;;;;;;;5114576;28;20031;-73
2021/11/09 01:08:06;;;;;;;27.95;12.68;;;;;;;;;;5097984;28;20035;-73
2021/11/09 01:10:37;;;;;;;33.42;12.27;;;;;;;;;;5111830;28;20059;-73
2021/11/09 01:13:05;;;;;;;28.00;11.18;;;;;;;;;;5110085;28;20042;-72
2021/11/09 01:15:32;;;;;;;40.25;12.40;;;;;;;;;;5110189;28;20052;-73
2021/11/09 01:17:58;;;;;;;37.05;12.15;;;;;;;;;;5119121;28;20043;-73
2021/11/09 01:20:27;;;;;;;33.22;12.15;;;;;;;;;;5108732;28;20044;-73
2021/11/09 01:22:53;;;;;;;33.35;12.13;;;;;;;;;;5101009;28;20126;-73
2021/11/09 01:25:21;;;;;;;29.17;13.27;;;;;;;;;;5120984;28;20077;-73
2021/11/09 01:27:47;;;;;;;31.75;12.40;;;;;;;;;;5103233;28;20067;-72
2021/11/09 01:30:15;;;;;;;28.65;11.60;;;;;;;;;;5114858;28;20043;-73
2021/11/09 01:32:41;;;;;;;27.50;12.52;;;;;;;;;;5111186;28;20419;-73
2021/11/09 01:35:08;;;;;;;30.00;12.13;;;;;;;;;;5096737;28;20112;-73
2021/11/09 01:37:36;;;;;;;33.77;13.23;;;;;;;;;;5093006;28;20076;-73
2021/11/09 01:40:02;;;;;;;29.02;12.02;;;;;;;;;;5091047;28;20047;-73
2021/11/09 01:42:28;;;;;;;39.35;13.50;;;;;;;;;;5119119;28;20111;-73
2021/11/09 01:44:55;;;;;;;30.58;12.20;;;;;;;;;;5111513;28;20590;-73
2021/11/09 01:47:21;;;;;;;30.90;13.48;;;;;;;;;;5116412;28;20052;-73
2021/11/09 01:49:47;;;;;;;26.45;12.27;;;;;;;;;;5111641;28;20051;-73
2021/11/09 01:52:13;;;;;;;26.17;11.48;;;;;;;;;;5094805;28;20036;-73
2021/11/09 01:54:40;;;;;;;29.10;13.00;;;;;;;;;;5115911;28;20067;-73
2021/11/09 01:57:06;;;;;;;34.63;14.18;;;;;;;;;;5115666;28;20086;-73
2021/11/09 01:59:32;;;;;;;39.22;13.48;;;;;;;;;;5113186;28;21895;-73
2021/11/09 02:01:59;;;;;;;34.25;14.07;;;;;;;;;;5114972;28;20063;-73
2021/11/09 02:04:25;;;;;;;30.25;13.60;;;;;;;;;;5097459;28;20492;-73
2021/11/09 02:06:51;;;;;;;40.10;14.68;;;;;;;;;;5115656;28;20195;-73
2021/11/09 02:09:18;;;;;;;36.53;15.02;;;;;;;;;;5091896;28;20036;-73
2021/11/09 02:11:47;;;;;;;37.20;14.20;;;;;;;;;;5114181;28;20618;-73
2021/11/09 02:14:14;;;;;;;31.10;14.70;;;;;;;;;;5098035;28;20044;-73
2021/11/09 02:16:40;;;;;;;29.25;12.98;;;;;;;;;;5117561;28;20126;-73
2021/11/09 02:19:06;;;;;;;32.35;14.05;;;;;;;;;;5114137;28;20377;-73
2021/11/09 02:21:33;;;;;;;27.27;12.50;;;;;;;;;;5112534;28;20096;-73
2021/11/09 02:23:59;;;;;;;22.58;12.73;;;;;;;;;;5097493;28;20047;-73
2021/11/09 02:26:26;;;;;;;39.90;14.52;;;;;;;;;;5116732;28;20100;-73
2021/11/09 02:28:53;;;;;;;31.00;12.07;;;;;;;;;;5120433;28;20040;-73
2021/11/09 02:31:20;;;;;;;37.55;12.25;;;;;;;;;;5098195;28;20063;-73
2021/11/09 02:33:46;;;;;;;30.02;12.68;;;;;;;;;;5100955;28;20148;-73
2021/11/09 02:36:12;;;;;;;29.38;11.48;;;;;;;;;;5101427;28;20047;-73
2021/11/09 02:38:38;;;;;;;35.13;11.90;;;;;;;;;;5122370;28;20040;-73
2021/11/09 02:41:04;;;;;;;32.88;11.35;;;;;;;;;;5098823;28;20048;-73
2021/11/09 02:43:31;;;;;;;33.55;11.77;;;;;;;;;;5120075;28;20527;-73
2021/11/09 02:48:29;;;;;;;32.20;12.63;;;;;;;;;;5116479;28;20048;-73
2021/11/09 02:53:55;;;;;;;36.67;13.00;;;;;;;;;;5101292;28;20055;-73
2021/11/09 03:01:46;;;;;;;28.83;13.48;;;;;;;;;;5120841;28;20096;-73
2021/11/09 03:04:21;;;;;;;27.92;13.68;;;;;;;;;;5100557;28;20043;-73
2021/11/09 03:09:21;;;;;;;41.60;14.88;;;;;;;;;;5105046;28;20040;-73
2021/11/09 03:11:53;;;;;;;35.00;14.23;;;;;;;;;;5124115;28;20073;-74
2021/11/09 03:14:22;;;;;;;39.33;12.68;;;;;;;;;;5115229;28;20046;-73
2021/11/09 03:16:48;;;;;;;33.17;13.05;;;;;;;;;;5115760;28;20093;-73
2021/11/09 03:44:20;;;;;;;33.65;12.30;;;;;;;;;;5119916;28;20067;-72
2021/11/09 03:46:49;;;;;;;35.13;12.32;;;;;;;;;;5091728;28;20056;-73
2021/11/09 03:49:18;;;;;;;30.85;13.27;;;;;;;;;;5119285;28;20522;-74
2021/11/09 03:51:44;;;;;;;37.08;12.10;;;;;;;;;;5094926;28;20056;-72
2021/11/09 03:54:14;;;;;;;25.48;11.57;;;;;;;;;;5119538;28;20086;-72
2021/11/09 03:56:46;;;;;;;41.90;12.50;;;;;;;;;;5096425;28;20047;-73
2021/11/09 03:59:21;;;;;;;32.20;10.18;;;;;;;;;;5116433;28;20043;-72
2021/11/09 04:07:02;;;;;;;36.13;11.20;;;;;;;;;;5116077;28;20043;-72
2021/11/09 04:09:40;;;;;;;37.30;12.15;;;;;;;;;;5095344;28;20048;-72
2021/11/09 04:20:16;;;;;;;32.92;9.63;;;;;;;;;;5097091;28;20126;-72
2021/11/09 04:23:10;;;;;;;31.27;9.85;;;;;;;;;;5096893;28;20036;-72
2021/11/09 04:31:32;;;;;;;38.00;9.77;;;;;;;;;;5084693;28;20036;-73
2021/11/09 04:34:29;;;;;;;27.05;9.45;;;;;;;;;;5112515;28;20044;-73
2021/11/09 05:12:03;;;;;;;43.65;12.02;;;;;;;;;;5003695;28;20046;-72
2021/11/09 05:14:30;;;;;;;38.85;12.55;;;;;;;;;;4986472;28;20047;-72
2021/11/09 05:16:56;;;;;;;30.13;11.02;;;;;;;;;;5005394;28;20043;-72
2021/11/09 05:19:22;;;;;;;36.33;11.05;;;;;;;;;;4989013;28;20058;-73
2021/11/09 05:21:48;;;;;;;27.30;9.80;;;;;;;;;;4986585;28;20057;-72
2021/11/09 05:24:14;;;;;;;34.20;10.38;;;;;;;;;;5012763;28;20073;-72
2021/11/09 05:26:41;;;;;;;34.00;12.15;;;;;;;;;;4985647;28;20126;-71
2021/11/09 05:29:07;;;;;;;32.03;10.70;;;;;;;;;;5015788;28;20056;-72
2021/11/09 05:31:33;;;;;;;28.98;9.85;;;;;;;;;;5002117;28;20038;-72
2021/11/09 05:34:00;;;;;;;30.42;10.15;;;;;;;;;;5005679;28;20051;-72
2021/11/09 05:36:35;;;;;;;29.27;10.07;;;;;;;;;;4987007;28;20073;-72
2021/11/09 05:39:09;;;;;;;34.38;11.05;;;;;;;;;;5007590;28;20062;-72
2021/11/09 05:41:38;;;;;;;43.42;11.77;;;;;;;;;;5004148;28;20050;-72
2021/11/09 05:44:06;;;;;;;30.73;10.43;;;;;;;;;;5002886;28;20086;-72
2021/11/09 05:46:32;;;;;;;46.28;13.25;;;;;;;;;;5058634;28;20044;-72
2021/11/09 05:48:58;;;;;;;47.03;13.55;;;;;;;;;;5088386;28;20201;-73
2021/11/09 05:51:24;;;;;;;53.92;16.02;;;;;;;;;;5097283;28;20121;-72
2021/11/09 05:53:51;;;;;;;52.00;15.02;;;;;;;;;;5093289;28;20036;-72
2021/11/09 05:56:17;;;;;;;54.30;15.35;;;;;;;;;;5090883;28;20057;-72
2021/11/09 05:58:43;;;;;;;51.30;16.65;;;;;;;;;;5092857;28;20071;-72
2021/11/09 06:01:09;;;;;;;54.55;16.38;;;;;;;;;;5101523;28;20048;-72
2021/11/09 06:03:36;;;;;;;48.45;13.77;;;;;;;;;;5098450;28;20383;-72
2021/11/09 06:06:03;;;;;;;49.20;15.20;;;;;;;;;;5096803;28;20086;-72
2021/11/09 06:08:29;;;;;;;47.50;15.55;;;;;;;;;;5095380;28;20040;-72
2021/11/09 06:10:55;;;;;;;43.25;13.60;;;;;;;;;;5095984;28;20060;-72
2021/11/09 06:13:21;;;;;;;46.88;14.70;;;;;;;;;;5101079;28;20044;-72
2021/11/09 06:15:47;;;;;;;47.60;15.05;;;;;;;;;;5094461;28;20072;-73
2021/11/09 06:18:13;;;;;;;57.15;17.08;;;;;;;;;;5092323;28;20158;-72
2021/11/09 06:20:40;;;;;;;44.25;14.30;;;;;;;;;;5093337;28;20044;-72
2021/11/09 06:23:06;;;;;;;46.67;14.60;;;;;;;;;;5100071;28;20365;-72
2021/11/09 06:25:32;;;;;;;38.88;13.32;;;;;;;;;;5095340;28;20104;-73
2021/11/09 06:28:03;;;;;;;42.80;13.80;;;;;;;;;;5098882;28;20492;-74
2021/11/09 06:30:29;;;;;;;50.05;13.57;;;;;;;;;;5094771;28;20040;-71
2021/11/09 06:32:55;;;;;;;52.58;14.43;;;;;;;;;;5104373;28;20040;-73
2021/11/09 06:35:21;;;;;;;33.03;13.40;;;;;;;;;;5104129;28;20043;-73
2021/11/09 06:37:47;;;;;;;48.85;14.57;;;;;;;;;;5103585;28;20055;-73
2021/11/09 06:40:13;;;;;;;40.70;13.77;;;;;;;;;;5099487;28;20036;-73
2021/11/09 06:42:39;;;;;;;43.47;15.43;;;;;;;;;;5095456;28;20052;-72
2021/11/09 06:45:06;;;;;;;49.53;14.15;;;;;;;;;;5099389;28;20051;-73
2021/11/09 06:47:32;;;;;;;58.88;14.90;;;;;;;;;;5093172;28;20049;-72
2021/11/09 06:49:59;;;;;;;48.75;15.35;;;;;;;;;;5098549;28;20073;-74
2021/11/09 06:52:25;;;;;;;44.22;13.57;;;;;;;;;;5096934;28;20043;-72
2021/11/09 06:54:51;;;;;;;54.20;16.70;;;;;;;;;;5094496;28;20052;-72
2021/11/09 06:57:17;;;;;;;46.35;14.98;;;;;;;;;;5097689;28;20071;-72
2021/11/09 06:59:43;;;;;;;50.72;14.55;;;;;;;;;;5094143;28;20048;-72
2021/11/09 07:02:09;;;;;;;57.28;16.45;;;;;;;;;;5098031;28;20066;-72
2021/11/09 07:04:35;;;;;;;49.80;16.80;;;;;;;;;;5092042;28;20062;-72
2021/11/09 07:07:03;;;;;;;64.22;16.30;;;;;;;;;;5094905;28;20040;-72
2021/11/09 07:09:29;;;;;;;46.20;16.67;;;;;;;;;;5095662;28;20056;-72
2021/11/09 07:11:55;;;;;;;49.03;15.60;;;;;;;;;;5102626;28;20047;-72
2021/11/09 07:14:21;;;;;;;42.30;14.60;;;;;;;;;;5099645;28;20037;-72
2021/11/09 07:16:47;;;;;;;51.22;14.25;;;;;;;;;;5101593;28;20403;-72
2021/11/09 07:19:15;;;;;;;52.63;15.77;;;;;;;;;;5090474;28;20083;-72
2021/11/09 07:21:42;;;;;;;53.50;15.40;;;;;;;;;;5095534;28;20044;-73
2021/11/09 07:24:08;;;;;;;48.92;14.48;;;;;;;;;;5098527;28;20071;-72
2021/11/09 07:26:34;;;;;;;40.85;14.23;;;;;;;;;;5092242;28;20040;-71
2021/11/09 07:29:00;;;;;;;36.40;11.75;;;;;;;;;;5095376;28;20036;-72
2021/11/09 07:31:28;;;;;;;28.20;11.60;;;;;;;;;;5091318;28;20368;-72
2021/11/09 07:33:54;;;;;;;29.20;11.45;;;;;;;;;;5094758;28;20108;-72
2021/11/09 07:36:21;;;;;;;37.25;12.05;;;;;;;;;;5101247;28;20050;-73
2021/11/09 07:38:47;;;;;;;39.53;12.25;;;;;;;;;;5087441;28;20039;-72
2021/11/09 07:41:13;;;;;;;30.77;11.13;;;;;;;;;;5094890;28;20392;-72
2021/11/09 07:43:39;;;;;;;34.47;11.80;;;;;;;;;;5115366;28;20073;-72
2021/11/09 07:46:06;;;;;;;32.50;11.60;;;;;;;;;;5116129;28;20048;-71
2021/11/09 07:48:32;;;;;;;29.38;10.88;;;;;;;;;;5100435;28;20380;-72
2021/11/09 07:50:58;;;;;;;40.92;10.82;;;;;;;;;;5112204;28;20082;-72
2021/11/09 07:53:29;;;;;;;34.67;10.80;;;;;;;;;;5107626;28;20216;-72
2021/11/09 07:58:58;;;;;;;37.58;11.32;;;;;;;;;;5113712;28;20075;-74
2021/11/09 08:01:31;;;;;;;32.85;11.55;;;;;;;;;;5116172;28;20108;-73
2021/11/09 08:04:09;;;;;;;30.92;10.38;;;;;;;;;;5078398;28;20502;-72
2021/11/09 08:07:11;;;;;;;27.77;10.73;;;;;;;;;;5096733;28;20090;-72
2021/11/09 08:09:30;;;;;;;25.92;10.18;;;;;;;;;;5097817;28;20054;-73
2021/11/09 08:11:57;;;;;;;29.17;9.05;;;;;;;;;;5089959;28;20491;-73
2021/11/09 08:14:24;;;;;;;27.27;9.18;;;;;;;;;;5123008;28;20043;-73
2021/11/09 08:16:50;;;;;;;31.27;9.75;;;;;;;;;;5123179;28;20483;-73
2021/11/09 08:19:17;;;;;;;32.22;9.60;;;;;;;;;;5106208;28;20123;-73
2021/11/09 08:21:44;;;;;;;34.50;10.45;;;;;;;;;;5119333;28;20076;-73
2021/11/09 08:24:11;;;;;;;32.58;9.20;;;;;;;;;;5104676;28;20051;-73
2021/11/09 08:26:37;;;;;;;33.00;9.65;;;;;;;;;;5119791;28;20188;-73
2021/11/09 08:29:04;;;;;;;25.25;9.18;;;;;;;;;;5124616;28;20117;-73
2021/11/09 08:31:35;;;;;;;28.23;9.13;;;;;;;;;;5100868;28;20156;-73
2021/11/09 08:34:02;;;;;;;25.65;9.88;;;;;;;;;;5118847;28;20302;-73
2021/11/09 08:36:29;;;;;;;26.25;9.52;;;;;;;;;;5119196;28;20113;-72
2021/11/09 08:39:00;;;;;;;31.20;9.60;;;;;;;;;;5119247;28;20420;-72
2021/11/09 08:41:28;;;;;;;24.63;9.20;;;;;;;;;;5090680;28;20116;-72
2021/11/09 08:44:03;;;;;;;28.20;9.45;;;;;;;;;;5097970;28;20109;-73
2021/11/09 08:46:34;;;;;;;29.73;9.07;;;;;;;;;;5098270;28;20049;-73
2021/11/09 08:49:00;;;;;;;27.88;10.45;;;;;;;;;;5098518;28;20048;-73
2021/11/09 08:51:26;;;;;;;34.08;9.95;;;;;;;;;;5100647;28;20048;-73
2021/11/09 09:04:12;;;;;;;35.60;10.93;;;;;;;;;;5113740;28;20044;-73
2021/11/09 09:06:39;;;;;;;23.98;9.25;;;;;;;;;;5085874;28;20048;-72
2021/11/09 09:09:05;;;;;;;24.83;10.52;;;;;;;;;;5095108;28;20080;-74
2021/11/09 09:11:31;;;;;;;27.42;9.63;;;;;;;;;;5091976;28;20054;-65
2021/11/09 09:13:59;;;;;;;28.67;9.05;;;;;;;;;;5103769;28;20044;-62
2021/11/09 09:16:25;;;;;;;24.90;8.88;;;;;;;;;;5096598;28;20403;-67
2021/11/09 09:18:53;;;;;;;23.23;8.40;;;;;;;;;;5113531;28;20040;-73
2021/11/09 09:21:25;;;;;;;;;;;;;;;;;;5098751;28;20054;-72
2021/11/09 09:23:56;;;;;;;19.25;7.95;;;;;;;;;;5104865;28;19932;-72
2021/11/09 09:26:33;;;;;;;40.22;10.15;;;;;;;;;;5094455;28;20044;-72
2021/11/09 09:29:12;;;;;;;34.03;9.35;;;;;;;;;;5113648;28;20056;-72
2021/11/09 09:31:52;;;;;;;27.90;9.18;;;;;;;;;;5095759;28;20105;-72
2021/11/09 09:56:15;;;;;;;28.60;8.90;;;;;;;;;;5099471;28;20055;-72
2021/11/09 09:58:42;;;;;;;19.58;8.32;;;;;;;;;;5094423;28;20051;-72
2021/11/09 10:01:10;;;;;;;32.38;8.82;;;;;;;;;;5117751;28;20050;-71
2021/11/09 10:03:37;;;;;;;29.40;9.57;;;;;;;;;;5117332;28;20048;-72
2021/11/09 10:06:06;;;;;;;23.63;8.25;;;;;;;;;;5113668;28;20044;-73
2021/11/09 10:08:41;;;;;;;28.75;8.93;;;;;;;;;;5101006;28;20095;-72
2021/11/09 10:11:07;;;;;;;28.10;9.75;;;;;;;;;;5095671;28;20051;-71
2021/11/09 10:13:40;;;;;;;20.20;8.75;;;;;;;;;;5115942;28;20082;-72
2021/11/09 10:16:14;;;;;;;28.00;9.75;;;;;;;;;;5115029;28;20494;-65
2021/11/09 10:18:42;;;;;;;21.40;7.85;;;;;;;;;;5090617;28;20074;-64
2021/11/09 10:21:08;;;;;;;28.10;9.07;;;;;;;;;;5099625;28;20139;-65
2021/11/09 10:23:35;;;;;;;29.10;9.07;;;;;;;;;;5101325;28;20059;-65
2021/11/09 10:26:13;;;;;;;23.92;6.82;;;;;;;;;;5096723;28;20048;-64
2021/11/09 10:28:39;;;;;;;;;;;;;;;;;;5095805;28;20039;-65
2021/11/09 10:31:07;;;;;;;22.65;8.27;;;;;;;;;;5096028;28;19924;-64
2021/11/09 10:33:40;;;;;;;;;;;;;;;;;;5118831;28;20043;-64
2021/11/09 10:36:21;;;;;;;24.25;8.05;;;;;;;;;;5102005;28;19919;-64
2021/11/09 10:38:48;;;;;;;25.05;8.95;;;;;;;;;;5103838;28;20071;-64
2021/11/09 10:41:16;;;;;;;20.13;7.63;;;;;;;;;;5116845;28;20515;-65
2021/11/09 10:43:42;;;;;;;20.65;8.23;;;;;;;;;;5099882;28;20051;-65
2021/11/09 10:46:22;;;;;;;22.55;8.50;;;;;;;;;;5113536;28;20040;-66
2021/11/09 10:48:48;;;;;;;25.42;7.40;;;;;;;;;;5118915;28;20102;-66
2021/11/09 10:51:14;;;;;;;23.65;7.78;;;;;;;;;;5116975;28;20055;-64
2021/11/09 10:53:45;;;;;;;16.90;6.80;;;;;;;;;;5119102;28;20039;-72
2021/11/09 11:04:03;;;;;;;24.20;8.20;;;;;;;;;;5115784;28;20044;-64
2021/11/09 11:06:34;;;;;;;28.45;8.80;;;;;;;;;;5099527;28;20103;-67
2021/11/09 11:09:14;;;;;;;25.48;8.57;;;;;;;;;;5113864;28;20036;-66
2021/11/09 11:11:44;;;;;;;17.77;7.65;;;;;;;;;;5114586;28;20483;-71
2021/11/09 11:14:11;;;;;;;28.27;8.70;;;;;;;;;;5114656;28;20109;-73
2021/11/09 11:16:42;;;;;;;21.83;8.07;;;;;;;;;;5095907;28;20036;-64
2021/11/09 11:19:09;;;;;;;24.38;7.28;;;;;;;;;;5117266;28;20079;-67
2021/11/09 11:21:35;;;;;;;18.40;6.80;;;;;;;;;;5099853;28;20055;-65
2021/11/09 11:24:01;;;;;;;26.77;8.18;;;;;;;;;;5120094;28;20130;-65
2021/11/09 11:26:27;;;;;;;21.83;7.47;;;;;;;;;;5114694;28;20068;-64
2021/11/09 11:28:54;;;;;;;20.65;6.75;;;;;;;;;;5112956;28;20055;-64
2021/11/09 11:31:21;;;;;;;21.20;6.17;;;;;;;;;;5115018;28;20060;-65
2021/11/09 11:33:48;;;;;;;27.63;6.95;;;;;;;;;;5089574;28;20037;-66
2021/11/09 11:36:14;;;;;;;15.85;7.05;;;;;;;;;;5097150;28;20518;-76
2021/11/09 11:38:43;;;;;;;19.17;7.30;;;;;;;;;;5098683;28;20201;-63
2021/11/09 11:41:10;;;;;;;15.05;6.88;;;;;;;;;;5119699;28;20048;-64
2021/11/09 11:43:48;;;;;;;19.83;8.30;;;;;;;;;;5099003;28;20051;-64
2021/11/09 11:46:17;;;;;;;23.75;7.70;;;;;;;;;;5096955;28;20078;-64
2021/11/09 11:49:03;;;;;;;30.73;7.78;;;;;;;;;;5116401;28;20067;-70
2021/11/09 11:51:30;;;;;;;24.25;7.45;;;;;;;;;;5098110;28;20055;-70
2021/11/09 11:53:56;;;;;;;20.13;7.53;;;;;;;;;;5094473;28;21263;-70
2021/11/09 11:56:42;;;;;;;17.65;7.20;;;;;;;;;;5094909;28;20297;-67
2021/11/09 11:59:13;;;;;;;20.13;7.35;;;;;;;;;;5115059;28;20107;-67
2021/11/09 12:01:44;;;;;;;30.02;8.52;;;;;;;;;;5098952;28;20051;-74
2021/11/09 12:04:10;;;;;;;20.52;7.13;;;;;;;;;;5116051;28;20043;-67
2021/11/09 12:06:52;;;;;;;21.30;7.63;;;;;;;;;;5115480;28;20035;-67
2021/11/09 12:09:42;;;;;;;18.38;8.38;;;;;;;;;;5099768;28;20126;-67
2021/11/09 12:12:20;;;;;;;22.33;8.30;;;;;;;;;;5087328;28;20051;-67
2021/11/09 12:14:57;;;;;;;25.38;8.43;;;;;;;;;;5105368;28;20059;-67
2021/11/09 12:17:40;;;;;;;26.65;9.05;;;;;;;;;;5118526;28;20483;-67
2021/11/09 12:20:07;;;;;;;25.63;9.07;;;;;;;;;;5118583;28;20092;-67
2021/11/09 12:22:37;;;;;;;26.65;8.82;;;;;;;;;;5098027;28;20078;-67
2021/11/09 12:25:05;;;;;;;21.58;7.82;;;;;;;;;;5112863;28;20083;-68
2021/11/09 12:27:49;;;;;;;27.92;9.23;;;;;;;;;;5097790;28;20131;-67
2021/11/09 12:30:37;;;;;;;30.98;8.50;;;;;;;;;;5109506;28;20514;-67
2021/11/09 12:33:08;;;;;;;31.70;9.93;;;;;;;;;;5112313;28;20503;-67
2021/11/09 12:35:35;;;;;;;27.83;8.52;;;;;;;;;;5096294;28;20086;-67
2021/11/09 12:38:01;;;;;;;28.77;9.10;;;;;;;;;;5108734;28;20032;-67
2021/11/09 12:40:40;;;;;;;24.38;9.20;;;;;;;;;;5110628;28;20047;-67
2021/11/09 12:43:18;;;;;;;27.55;11.07;;;;;;;;;;5113744;28;21907;-67
2021/11/09 12:45:44;;;;;;;;;;;;;;;;;;5095393;28;20059;-67
2021/11/09 12:48:12;;;;;;;33.10;9.48;;;;;;;;;;5113384;28;20366;-67
2021/11/09 12:50:44;;;;;;;31.83;9.48;;;;;;;;;;5099829;28;20529;-66
2021/11/09 12:53:12;;;;;;;28.88;9.77;;;;;;;;;;5094838;28;20159;-65
2021/11/09 12:55:39;;;;;;;32.40;9.43;;;;;;;;;;5114222;28;20134;-70
2021/11/09 12:58:15;;;;;;;33.95;8.82;;;;;;;;;;5096845;28;20056;-65
2021/11/09 13:00:46;;;;;;;29.70;10.18;;;;;;;;;;5109935;28;20063;-73
2021/11/09 13:03:28;;;;;;;27.15;10.63;;;;;;;;;;5121992;28;20035;-65
2021/11/09 13:06:03;;;;;;;34.03;10.18;;;;;;;;;;5120255;28;20051;-65
2021/11/09 13:08:41;;;;;;;29.40;10.93;;;;;;;;;;5113190;28;20040;-67
2021/11/09 13:11:26;;;;;;;30.58;9.63;;;;;;;;;;5112630;28;20052;-67
2021/11/09 13:14:01;;;;;;;29.98;9.07;;;;;;;;;;5096178;28;20071;-66
2021/11/09 13:16:27;;;;;;;27.90;9.85;;;;;;;;;;5091525;28;20530;-73
2021/11/09 13:19:01;;;;;;;25.63;8.45;;;;;;;;;;5096732;28;20044;-69
2021/11/09 13:21:27;;;;;;;26.15;8.70;;;;;;;;;;5096763;28;20503;-66
2021/11/09 13:23:53;;;;;;;24.42;9.13;;;;;;;;;;5097769;28;20461;-67
2021/11/09 13:26:19;;;;;;;30.20;9.82;;;;;;;;;;5112715;28;20167;-66
2021/11/09 13:28:45;;;;;;;22.92;8.25;;;;;;;;;;5096753;28;20069;-69
2021/11/09 13:31:13;;;;;;;24.23;10.85;;;;;;;;;;5110369;28;20114;-66
2021/11/09 13:33:41;;;;;;;24.77;9.63;;;;;;;;;;5098166;28;20040;-68
2021/11/09 13:36:07;;;;;;;24.80;8.80;;;;;;;;;;5098677;28;20044;-69
2021/11/09 13:38:38;;;;;;;27.83;10.10;;;;;;;;;;5113548;28;20070;-67
2021/11/09 13:41:17;;;;;;;23.98;9.88;;;;;;;;;;5115861;28;20062;-66
2021/11/09 13:43:51;;;;;;;23.58;8.57;;;;;;;;;;5113451;28;20056;-66
2021/11/09 13:46:24;;;;;;;27.50;9.20;;;;;;;;;;5112092;28;20079;-67
2021/11/09 13:48:51;;;;;;;25.25;8.77;;;;;;;;;;5096968;28;20094;-67
2021/11/09 13:51:24;;;;;;;26.75;9.75;;;;;;;;;;5113337;28;20044;-67
2021/11/09 13:53:54;;;;;;;28.55;10.35;;;;;;;;;;5094049;28;20052;-67
2021/11/09 13:56:24;;;;;;;29.48;10.80;;;;;;;;;;5110448;28;20107;-68
2021/11/09 13:58:54;;;;;;;27.10;10.00;;;;;;;;;;5095618;28;20052;-67
2021/11/09 14:01:33;;;;;;;29.13;11.10;;;;;;;;;;5093387;28;20075;-67
2021/11/09 14:04:18;;;;;;;30.85;9.90;;;;;;;;;;5113044;28;20047;-67
2021/11/09 14:12:13;;;;;;;27.63;10.07;;;;;;;;;;5117636;28;20054;-67
2021/11/09 14:15:26;;;;;;;24.92;9.15;;;;;;;;;;5115585;28;20036;-71
2021/11/09 14:17:35;;;;;;;29.67;9.35;;;;;;;;;;5110908;28;20035;-71
2021/11/09 14:20:18;;;;;;;28.52;9.88;;;;;;;;;;5101303;28;20051;-71
2021/11/09 14:22:46;;;;;;;26.00;9.05;;;;;;;;;;5117638;28;20055;-71
2021/11/09 14:25:13;;;;;;;25.02;8.82;;;;;;;;;;5117975;28;20103;-66
2021/11/09 14:27:43;;;;;;;31.83;8.57;;;;;;;;;;5100629;28;20055;-66
2021/11/09 14:30:11;;;;;;;22.42;8.00;;;;;;;;;;5123361;28;21103;-68
2021/11/09 14:32:37;;;;;;;35.15;9.93;;;;;;;;;;5119002;28;20050;-66
2021/11/09 14:35:14;;;;;;;29.98;8.93;;;;;;;;;;5120599;28;20063;-64
2021/11/09 14:37:46;;;;;;;25.10;7.85;;;;;;;;;;5113349;28;20051;-63
2021/11/09 14:40:13;;;;;;;23.92;8.38;;;;;;;;;;5100379;28;20048;-64
2021/11/09 14:45:19;;;;;;;31.35;8.40;;;;;;;;;;5097184;28;20056;-64
2021/11/09 14:47:46;;;;;;;24.88;7.50;;;;;;;;;;5102266;28;20048;-63
2021/11/09 14:50:24;;;;;;;21.63;7.63;;;;;;;;;;5097876;28;20083;-64
2021/11/09 14:52:51;;;;;;;35.33;10.48;;;;;;;;;;5096685;28;20058;-62
2021/11/09 14:55:23;;;;;;;23.60;8.27;;;;;;;;;;5117086;28;20047;-63
2021/11/09 14:57:50;;;;;;;29.30;8.95;;;;;;;;;;5097718;28;20051;-64
2021/11/09 15:00:17;;;;;;;25.92;8.73;;;;;;;;;;5101140;28;20472;-69
2021/11/09 15:02:43;;;;;;;35.08;8.85;;;;;;;;;;5097698;28;20044;-74
2021/11/09 15:05:14;;;;;;;33.20;9.38;;;;;;;;;;5097226;28;20063;-65
2021/11/09 15:08:00;;;;;;;31.08;9.70;;;;;;;;;;5119020;28;20051;-66
2021/11/09 15:13:09;;;;;;;30.35;9.35;;;;;;;;;;5117478;28;20075;-66
2021/11/09 15:31:52;;;;;;;26.17;8.38;;;;;;;;;;5119615;28;20059;-69
2021/11/09 15:39:28;;;;;;;31.75;9.30;;;;;;;;;;5116363;28;20103;-71
2021/11/09 15:41:55;;;;;;;22.55;8.20;;;;;;;;;;5099405;28;20047;-67
2021/11/09 15:44:22;;;;;;;23.27;8.98;;;;;;;;;;5119237;28;20108;-65
2021/11/09 15:46:54;;;;;;;27.33;8.73;;;;;;;;;;5115476;28;20108;-65
2021/11/09 15:49:20;;;;;;;26.88;8.35;;;;;;;;;;5091528;28;20112;-70
2021/11/09 15:51:47;;;;;;;26.10;8.98;;;;;;;;;;5116526;28;20050;-71
2021/11/09 15:54:13;;;;;;;35.63;10.10;;;;;;;;;;5119972;28;20079;-66
2021/11/09 15:56:40;;;;;;;27.98;10.02;;;;;;;;;;5121386;28;20063;-73
2021/11/09 15:59:07;;;;;;;30.33;9.90;;;;;;;;;;5114514;28;20047;-65
2021/11/09 16:01:34;;;;;;;35.90;9.90;;;;;;;;;;5112547;28;20065;-72
2021/11/09 16:04:00;;;;;;;37.27;10.63;;;;;;;;;;5099854;28;20058;-74
2021/11/09 16:06:29;;;;;;;23.42;7.93;;;;;;;;;;5108479;28;20302;-64
2021/11/09 16:08:56;;;;;;;26.73;10.43;;;;;;;;;;5096955;28;20063;-64
2021/11/09 16:11:22;;;;;;;36.38;10.30;;;;;;;;;;5117605;28;20104;-67
2021/11/09 16:13:48;;;;;;;35.25;10.57;;;;;;;;;;5099493;28;20108;-67
2021/11/09 16:16:15;;;;;;;25.92;11.35;;;;;;;;;;5080510;28;20050;-67
2021/11/09 16:18:41;;;;;;;29.67;9.88;;;;;;;;;;5116360;28;20132;-72
2021/11/09 16:21:10;;;;;;;38.35;10.98;;;;;;;;;;5095016;28;20044;-71
2021/11/09 16:23:36;;;;;;;30.98;10.55;;;;;;;;;;5116251;28;20096;-68
2021/11/09 16:26:02;;;;;;;32.22;9.35;;;;;;;;;;5115347;28;20040;-64
2021/11/09 16:28:28;;;;;;;37.55;10.77;;;;;;;;;;5100495;28;20087;-66
2021/11/09 16:30:54;;;;;;;26.90;10.82;;;;;;;;;;5112757;28;20104;-66
2021/11/09 16:33:27;;;;;;;30.52;10.32;;;;;;;;;;5096976;28;20047;-65
2021/11/09 16:36:01;;;;;;;44.78;10.70;;;;;;;;;;5095988;28;20048;-65
2021/11/09 16:38:33;;;;;;;30.30;10.25;;;;;;;;;;5115445;28;20036;-70
2021/11/09 16:41:01;;;;;;;34.25;10.10;;;;;;;;;;5092528;28;20056;-66
2021/11/09 16:43:37;;;;;;;33.72;9.82;;;;;;;;;;5115129;28;20048;-67
2021/11/09 16:48:33;;;;;;;28.47;9.67;;;;;;;;;;5094424;28;20051;-76
2021/11/09 16:51:10;;;;;;;34.08;9.85;;;;;;;;;;5097556;28;20051;-77
2021/11/09 16:53:38;;;;;;;35.60;10.10;;;;;;;;;;5080024;28;20059;-77
2021/11/09 18:20:19;;;;;;;26.75;8.52;;;;;;;;;;5122430;28;20067;-65
2021/11/09 18:22:50;;;;;;;24.70;8.20;;;;;;;;;;5104012;28;20044;-66
2021/11/09 18:25:17;;;;;;;29.92;10.20;;;;;;;;;;5103276;28;20047;-66
2021/11/09 18:27:44;;;;;;;30.73;9.60;;;;;;;;;;5103713;28;20118;-65
2021/11/09 18:30:12;;;;;;;25.93;10.33;;;;;;;;;;5124294;28;20051;-66
2021/11/09 18:32:38;;;;;;;27.80;10.75;;;;;;;;;;5107464;28;20077;-66
2021/11/09 18:35:08;;;;;;;33.45;9.95;;;;;;;;;;5102231;28;20047;-63
2021/11/09 18:37:34;;;;;;;33.92;10.43;;;;;;;;;;5122885;28;20078;-63
2021/11/09 18:40:00;;;;;;;26.85;8.85;;;;;;;;;;5114427;28;20040;-62
2021/11/09 18:42:28;;;;;;;29.10;10.00;;;;;;;;;;5102329;28;20483;-64
2021/11/09 18:44:54;;;;;;;;;;;;;;;;;;5120965;28;20523;-64
2021/11/09 18:47:20;;;;;;;24.52;8.82;;;;;;;;;;5121759;28;20383;-63
2021/11/09 18:49:47;;;;;;;33.58;11.80;;;;;;;;;;5122412;28;20554;-63